Time;durP1;ratioP1;P1;durP2;ratioP2;P2;SDS_P1;SDS_P2;PMS_P1;PMS_P2;Temp;Humidity;BMP_temperature;BMP_pressure;BME280_temperature;BME280_humidity;BME280_pressure;Samples;Min_cycle;Max_cycle;Signal;HPM_P1;HPM_P2
2022/03/03 00:00:23;;;;;;;41.30;20.42;;;1.60;61.90;;;;;;5014400;28;20030;-75
2022/03/03 00:02:49;;;;;;;37.67;19.40;;;1.60;62.20;;;;;;5014369;28;20018;-74
2022/03/03 00:05:15;;;;;;;32.50;18.70;;;1.60;62.50;;;;;;5013974;28;20034;-74
2022/03/03 00:07:41;;;;;;;40.88;19.38;;;1.60;62.40;;;;;;5013153;28;20470;-74
2022/03/03 00:10:08;;;;;;;36.92;19.75;;;1.60;62.40;;;;;;5014185;28;20022;-74
2022/03/03 00:12:34;;;;;;;36.28;19.20;;;1.60;62.30;;;;;;5014218;28;20030;-74
2022/03/03 00:15:00;;;;;;;34.40;19.35;;;1.50;62.40;;;;;;5014143;28;20108;-73
2022/03/03 00:17:26;;;;;;;37.28;19.05;;;1.40;62.50;;;;;;4996485;28;20041;-73
2022/03/03 00:19:51;;;;;;;33.78;18.00;;;1.50;62.70;;;;;;5014070;28;20032;-73
2022/03/03 00:22:17;;;;;;;34.97;17.60;;;1.40;62.50;;;;;;5014082;28;20041;-74
2022/03/03 00:24:43;;;;;;;34.83;17.42;;;1.40;62.50;;;;;;5014082;28;20061;-74
2022/03/03 00:27:09;;;;;;;30.90;17.45;;;1.30;62.20;;;;;;5013775;28;20038;-74
2022/03/03 00:29:35;;;;;;;34.70;16.83;;;1.30;61.70;;;;;;5013935;28;20018;-73
2022/03/03 00:32:00;;;;;;;30.17;16.65;;;1.40;61.60;;;;;;5013823;28;20026;-73
2022/03/03 00:34:26;;;;;;;28.85;16.98;;;1.30;61.40;;;;;;5013938;28;20022;-74
2022/03/03 00:36:52;;;;;;;30.67;16.73;;;1.30;61.20;;;;;;5013717;28;20044;-73
2022/03/03 00:39:17;;;;;;;29.50;14.70;;;1.30;61.20;;;;;;5013795;28;20065;-75
2022/03/03 00:41:43;;;;;;;34.15;17.65;;;1.40;61.00;;;;;;5013771;28;20490;-75
2022/03/03 00:44:09;;;;;;;31.95;18.63;;;1.40;60.90;;;;;;5013633;28;20041;-74
2022/03/03 00:46:36;;;;;;;32.00;17.88;;;1.30;61.70;;;;;;5013573;28;20168;-74
2022/03/03 00:49:03;;;;;;;35.28;18.90;;;1.20;62.50;;;;;;5013627;28;20022;-74
2022/03/03 00:51:28;;;;;;;36.95;18.95;;;1.20;63.00;;;;;;5013634;28;20100;-74
2022/03/03 00:53:54;;;;;;;34.30;18.73;;;1.20;63.40;;;;;;5012256;28;20026;-73
2022/03/03 00:56:20;;;;;;;34.55;18.80;;;1.20;63.50;;;;;;5013550;28;20466;-74
2022/03/03 00:58:46;;;;;;;34.33;18.85;;;1.10;63.40;;;;;;5013412;28;20097;-75
2022/03/03 01:01:11;;;;;;;33.78;18.92;;;1.10;63.40;;;;;;5013326;28;20505;-74
2022/03/03 01:03:37;;;;;;;37.08;19.35;;;1.10;63.70;;;;;;5013471;28;20026;-75
2022/03/03 01:06:03;;;;;;;40.60;19.83;;;1.00;63.70;;;;;;5011815;28;20034;-73
2022/03/03 01:08:29;;;;;;;38.17;19.17;;;1.10;63.60;;;;;;5013268;28;20033;-73
2022/03/03 01:10:54;;;;;;;37.95;19.65;;;1.00;64.00;;;;;;5012998;28;20049;-74
2022/03/03 01:13:22;;;;;;;35.38;18.73;;;1.00;64.30;;;;;;5013105;28;20104;-73
2022/03/03 01:15:48;;;;;;;36.17;19.05;;;1.00;64.50;;;;;;5012880;28;20471;-73
2022/03/03 01:18:14;;;;;;;34.53;18.25;;;1.00;64.20;;;;;;5013006;28;20109;-73
2022/03/03 01:20:39;;;;;;;38.65;19.23;;;1.00;63.80;;;;;;5012801;28;20100;-73
2022/03/03 01:23:05;;;;;;;32.35;17.90;;;1.00;63.60;;;;;;5011613;28;20375;-73
2022/03/03 01:25:30;;;;;;;33.25;17.33;;;0.90;64.90;;;;;;5012956;28;20056;-73
2022/03/03 01:27:56;;;;;;;37.17;18.00;;;0.90;63.70;;;;;;5013010;28;20030;-72
2022/03/03 01:30:22;;;;;;;31.25;17.33;;;0.80;63.60;;;;;;5013067;28;20030;-73
2022/03/03 01:32:47;;;;;;;36.08;16.83;;;0.90;63.80;;;;;;5013006;28;20053;-74
2022/03/03 01:35:13;;;;;;;34.35;18.05;;;0.90;63.60;;;;;;5013002;28;20058;-73
2022/03/03 01:37:38;;;;;;;30.50;17.60;;;0.90;63.60;;;;;;5012944;28;20313;-73
2022/03/03 01:40:05;;;;;;;32.97;18.02;;;0.90;63.50;;;;;;5012912;28;20036;-73
2022/03/03 01:42:31;;;;;;;34.45;18.17;;;0.90;64.50;;;;;;5012871;28;20018;-74
2022/03/03 01:44:56;;;;;;;34.60;17.95;;;0.80;63.80;;;;;;5012595;28;20504;-74
2022/03/03 01:47:24;;;;;;;30.98;16.95;;;0.80;63.90;;;;;;5013266;28;20103;-74
2022/03/03 01:49:53;;;;;;;35.40;18.30;;;0.80;63.70;;;;;;5013071;28;20030;-73
2022/03/03 01:52:19;;;;;;;30.67;17.77;;;0.80;63.90;;;;;;5012939;28;20375;-75
2022/03/03 01:54:45;;;;;;;34.40;18.80;;;0.70;64.20;;;;;;5012705;28;20029;-75
2022/03/03 01:57:12;;;;;;;32.63;17.83;;;0.70;64.40;;;;;;5012963;28;20030;-74
2022/03/03 01:59:38;;;;;;;30.42;16.42;;;0.60;64.30;;;;;;5012868;28;20108;-74
2022/03/03 02:02:08;;;;;;;28.88;16.88;;;0.60;64.30;;;;;;5012723;28;20049;-75
2022/03/03 02:04:34;;;;;;;33.90;17.42;;;0.60;64.30;;;;;;5012733;28;20112;-73
2022/03/03 02:07:00;;;;;;;37.72;16.75;;;0.70;64.00;;;;;;5012552;28;20117;-73
2022/03/03 02:09:26;;;;;;;33.10;16.67;;;0.60;63.70;;;;;;5012659;28;20022;-74
2022/03/03 02:11:52;;;;;;;30.35;16.88;;;0.70;63.30;;;;;;5012395;28;20030;-75
2022/03/03 02:14:18;;;;;;;31.05;16.58;;;0.70;63.00;;;;;;5012459;28;20025;-74
2022/03/03 02:16:44;;;;;;;30.30;16.52;;;0.70;63.10;;;;;;4994868;28;20030;-73
2022/03/03 02:19:15;;;;;;;33.03;16.50;;;0.70;63.00;;;;;;5012522;28;20033;-75
2022/03/03 02:21:40;;;;;;;30.70;16.05;;;0.60;63.20;;;;;;5012598;28;20026;-74
2022/03/03 02:24:07;;;;;;;29.98;16.17;;;0.50;63.50;;;;;;5012317;28;20520;-74
2022/03/03 02:26:34;;;;;;;28.67;16.23;;;0.50;63.90;;;;;;5012424;28;20541;-74
2022/03/03 02:28:59;;;;;;;33.78;15.70;;;0.40;63.80;;;;;;5014269;28;20474;-74
2022/03/03 02:31:25;;;;;;;35.95;15.82;;;0.50;63.80;;;;;;5015955;28;20025;-73
2022/03/03 02:33:51;;;;;;;30.58;16.13;;;0.60;63.60;;;;;;5015992;28;20029;-74
2022/03/03 02:36:27;;;;;;;31.60;16.35;;;0.50;63.80;;;;;;5015825;28;20022;-74
2022/03/03 02:38:57;;;;;;;33.17;16.42;;;0.50;63.80;;;;;;5015784;28;20018;-75
2022/03/03 02:41:24;;;;;;;28.98;16.52;;;0.50;64.10;;;;;;5015879;28;20058;-74
2022/03/03 02:43:50;;;;;;;31.67;16.35;;;0.50;63.90;;;;;;5015578;28;20394;-74
2022/03/03 02:46:16;;;;;;;30.05;15.77;;;0.50;63.50;;;;;;5014314;28;20038;-74
2022/03/03 02:48:41;;;;;;;30.15;15.93;;;0.50;63.40;;;;;;5015660;28;20217;-74
2022/03/03 02:51:08;;;;;;;32.70;16.27;;;0.50;63.40;;;;;;5015498;28;20029;-74
2022/03/03 02:53:34;;;;;;;29.17;15.98;;;0.50;63.40;;;;;;5015614;28;20056;-74
2022/03/03 02:56:00;;;;;;;27.58;15.10;;;0.50;63.20;;;;;;5015527;28;20046;-76
2022/03/03 02:58:26;;;;;;;41.20;17.02;;;0.50;63.40;;;;;;5015426;28;20018;-74
2022/03/03 03:00:51;;;;;;;28.42;15.98;;;0.50;63.40;;;;;;5015445;28;20041;-75
2022/03/03 03:03:18;;;;;;;34.10;16.77;;;0.50;63.40;;;;;;5015440;28;20056;-74
2022/03/03 03:05:44;;;;;;;37.90;17.45;;;0.50;63.50;;;;;;5015155;28;20390;-75
2022/03/03 03:08:10;;;;;;;36.28;16.88;;;0.40;63.80;;;;;;5015341;28;20137;-75
2022/03/03 03:10:36;;;;;;;29.25;16.55;;;0.40;64.20;;;;;;5015312;28;20375;-75
2022/03/03 03:13:02;;;;;;;30.17;16.13;;;0.40;64.30;;;;;;5015148;28;20026;-75
2022/03/03 03:15:28;;;;;;;28.75;14.93;;;0.40;64.10;;;;;;4997518;28;20363;-76
2022/03/03 03:17:54;;;;;;;29.58;15.48;;;0.40;64.20;;;;;;5015124;28;20022;-75
2022/03/03 03:20:20;;;;;;;28.25;14.85;;;0.50;63.70;;;;;;5015107;28;20025;-75
2022/03/03 03:22:46;;;;;;;27.35;15.48;;;0.50;63.40;;;;;;5015161;28;20429;-75
2022/03/03 03:25:13;;;;;;;28.27;13.73;;;0.40;63.50;;;;;;5014800;28;20026;-74
2022/03/03 03:27:40;;;;;;;33.00;15.68;;;0.50;63.80;;;;;;4997265;28;20112;-75
2022/03/03 03:30:10;;;;;;;29.05;15.57;;;0.50;63.80;;;;;;4997215;28;20401;-75
2022/03/03 03:32:36;;;;;;;26.98;14.63;;;0.40;64.00;;;;;;5014745;28;20033;-73
2022/03/03 03:35:04;;;;;;;32.00;15.85;;;0.30;64.40;;;;;;5014738;28;20109;-73
2022/03/03 03:37:29;;;;;;;33.67;16.27;;;0.20;64.50;;;;;;5014765;28;20021;-76
2022/03/03 03:39:56;;;;;;;29.20;15.15;;;0.20;65.10;;;;;;5014618;28;20022;-73
2022/03/03 03:42:21;;;;;;;36.13;18.58;;;0.10;65.80;;;;;;5013422;28;20385;-73
2022/03/03 03:44:47;;;;;;;31.15;16.77;;;0.00;66.20;;;;;;4996574;28;20144;-76
2022/03/03 03:47:13;;;;;;;28.98;16.10;;;0.00;66.50;;;;;;5014579;28;20111;-76
2022/03/03 03:49:39;;;;;;;31.42;16.80;;;-0.10;67.20;;;;;;5014479;28;20422;-75
2022/03/03 03:52:05;;;;;;;29.80;16.95;;;-0.20;67.20;;;;;;4996856;28;20076;-76
2022/03/03 03:54:31;;;;;;;32.28;17.13;;;-0.20;67.40;;;;;;5014401;28;20033;-75
2022/03/03 03:56:56;;;;;;;36.00;17.67;;;-0.30;67.70;;;;;;5014334;28;20105;-76
2022/03/03 03:59:22;;;;;;;34.88;16.70;;;-0.30;67.90;;;;;;5014284;28;20033;-75
2022/03/03 04:01:47;;;;;;;33.83;17.00;;;-0.40;68.40;;;;;;5014265;28;20037;-76
2022/03/03 04:04:13;;;;;;;29.20;16.05;;;-0.40;68.80;;;;;;5014223;28;20060;-76
2022/03/03 04:06:40;;;;;;;35.28;17.55;;;-0.40;68.80;;;;;;5014224;28;20098;-76
2022/03/03 04:09:06;;;;;;;33.33;16.52;;;-0.30;68.90;;;;;;5014003;28;20180;-76
2022/03/03 04:11:31;;;;;;;33.13;16.27;;;-0.30;68.60;;;;;;5014071;28;20105;-76
2022/03/03 04:13:57;;;;;;;32.10;16.55;;;-0.20;68.20;;;;;;5013954;28;20026;-76
2022/03/03 04:16:26;;;;;;;33.47;17.13;;;-0.20;67.90;;;;;;5013867;28;20025;-73
2022/03/03 04:18:52;;;;;;;31.27;16.88;;;-0.20;67.40;;;;;;5013709;28;20029;-73
2022/03/03 04:21:18;;;;;;;36.47;18.38;;;-0.10;67.10;;;;;;5013779;28;20048;-74
2022/03/03 04:23:44;;;;;;;32.00;16.92;;;-0.20;67.10;;;;;;5013669;28;20080;-74
2022/03/03 04:26:09;;;;;;;33.97;16.77;;;-0.20;67.30;;;;;;4995876;28;20053;-74
2022/03/03 04:28:36;;;;;;;34.03;17.85;;;-0.20;67.20;;;;;;5013605;28;20105;-73
2022/03/03 04:31:03;;;;;;;34.80;18.30;;;-0.10;67.40;;;;;;5013661;28;20026;-75
2022/03/03 04:33:29;;;;;;;34.58;18.33;;;-0.10;67.30;;;;;;5013592;28;20167;-73
2022/03/03 04:35:56;;;;;;;33.55;17.58;;;-0.10;67.10;;;;;;5013548;28;20057;-74
2022/03/03 04:38:22;;;;;;;33.17;16.05;;;-0.10;66.90;;;;;;5013631;28;20371;-74
2022/03/03 04:40:47;;;;;;;36.30;17.63;;;0.00;66.70;;;;;;5013562;28;20029;-73
2022/03/03 04:43:13;;;;;;;31.58;16.00;;;0.10;66.30;;;;;;5013321;28;20041;-73
2022/03/03 04:45:38;;;;;;;29.88;15.57;;;0.10;66.10;;;;;;5013539;28;20026;-74
2022/03/03 04:48:04;;;;;;;33.22;15.68;;;0.20;65.90;;;;;;5013263;28;20109;-74
2022/03/03 04:50:30;;;;;;;28.55;15.15;;;0.20;65.60;;;;;;5013079;28;20029;-74
2022/03/03 04:52:56;;;;;;;29.73;15.38;;;0.10;66.00;;;;;;5013289;28;20018;-73
2022/03/03 04:55:22;;;;;;;30.92;15.77;;;0.20;65.60;;;;;;5014977;28;20021;-74
2022/03/03 04:57:48;;;;;;;30.33;15.60;;;0.20;65.40;;;;;;5013469;28;20022;-74
2022/03/03 05:00:14;;;;;;;30.15;16.00;;;0.10;65.40;;;;;;5013534;28;20026;-75
2022/03/03 05:02:40;;;;;;;30.98;15.38;;;0.20;65.20;;;;;;5013225;28;20026;-75
2022/03/03 05:05:05;;;;;;;33.95;17.17;;;0.20;65.20;;;;;;5013161;28;20061;-75
2022/03/03 05:07:31;;;;;;;28.98;15.63;;;0.10;65.00;;;;;;5013310;28;20072;-73
2022/03/03 05:09:57;;;;;;;28.25;15.52;;;0.00;65.40;;;;;;5013365;28;20391;-75
2022/03/03 05:12:23;;;;;;;28.98;16.42;;;0.00;65.70;;;;;;5013230;28;20018;-75
2022/03/03 05:14:48;;;;;;;28.80;15.27;;;0.00;66.00;;;;;;5013212;28;20463;-74
2022/03/03 05:17:14;;;;;;;28.55;15.70;;;0.10;65.90;;;;;;5013184;28;20029;-75
2022/03/03 05:19:39;;;;;;;31.75;16.45;;;0.00;65.90;;;;;;5013131;28;20536;-75
2022/03/03 05:22:05;;;;;;;31.95;16.55;;;-0.10;66.10;;;;;;5012991;28;20059;-75
2022/03/03 05:24:30;;;;;;;37.83;16.98;;;-0.10;66.50;;;;;;5012852;28;20026;-75
2022/03/03 05:26:56;;;;;;;36.40;17.73;;;-0.20;66.70;;;;;;5012958;28;20497;-75
2022/03/03 05:29:21;;;;;;;31.75;16.02;;;-0.30;66.80;;;;;;5012909;28;20442;-75
2022/03/03 05:31:47;;;;;;;32.80;16.52;;;-0.30;67.10;;;;;;5012842;28;20036;-75
2022/03/03 05:34:13;;;;;;;33.03;17.20;;;-0.30;67.30;;;;;;5012940;28;20022;-75
2022/03/03 05:36:40;;;;;;;28.27;16.23;;;-0.30;67.40;;;;;;5012894;28;20339;-76
2022/03/03 05:39:06;;;;;;;29.65;15.48;;;-0.40;68.00;;;;;;5012850;28;20018;-76
2022/03/03 05:41:32;;;;;;;34.10;16.90;;;-0.50;67.60;;;;;;5012794;28;20033;-75
2022/03/03 05:43:58;;;;;;;38.15;17.75;;;-0.50;67.90;;;;;;5012730;28;20359;-75
2022/03/03 05:46:24;;;;;;;33.72;17.05;;;-0.50;68.10;;;;;;5012738;28;20088;-75
2022/03/03 05:48:50;;;;;;;32.55;16.75;;;-0.50;68.00;;;;;;5012624;28;20021;-75
2022/03/03 05:51:17;;;;;;;33.25;16.83;;;-0.50;68.00;;;;;;5012853;28;20149;-75
2022/03/03 05:53:43;;;;;;;35.67;16.40;;;-0.50;68.00;;;;;;5012675;28;20387;-75
2022/03/03 05:56:10;;;;;;;38.45;18.45;;;-0.50;68.00;;;;;;5012699;28;20498;-75
2022/03/03 05:58:42;;;;;;;30.02;15.50;;;-0.50;68.10;;;;;;4994789;28;20128;-75
2022/03/03 06:01:10;;;;;;;31.73;14.70;;;-0.60;67.80;;;;;;5012757;28;20040;-75
2022/03/03 06:03:36;;;;;;;27.27;14.30;;;-0.60;67.70;;;;;;5014068;28;20319;-75
2022/03/03 06:06:15;;;;;;;27.17;15.00;;;-0.70;67.90;;;;;;5016292;28;20038;-76
2022/03/03 06:08:49;;;;;;;33.88;16.88;;;-0.70;67.90;;;;;;5016104;28;20347;-75
2022/03/03 06:11:16;;;;;;;34.22;17.00;;;-0.70;68.30;;;;;;5016335;28;20072;-75
2022/03/03 06:13:46;;;;;;;37.45;17.83;;;-0.70;68.30;;;;;;5016492;28;20064;-76
2022/03/03 06:16:19;;;;;;;33.45;18.10;;;-0.60;68.10;;;;;;5016083;28;20045;-76
2022/03/03 06:18:46;;;;;;;36.80;16.63;;;-0.50;68.00;;;;;;5016232;28;20029;-76
2022/03/03 06:21:12;;;;;;;32.05;16.45;;;-0.50;67.80;;;;;;5016138;28;20083;-75
2022/03/03 06:23:37;;;;;;;34.85;17.40;;;-0.50;67.60;;;;;;5016008;28;20097;-76
2022/03/03 06:26:13;;;;;;;32.88;16.88;;;-0.50;67.70;;;;;;5016002;28;20379;-75
2022/03/03 06:28:39;;;;;;;37.17;17.98;;;-0.40;67.40;;;;;;4998224;28;20031;-75
2022/03/03 06:31:06;;;;;;;34.42;18.88;;;-0.40;67.50;;;;;;5015912;28;20022;-75
2022/03/03 06:33:33;;;;;;;34.60;18.52;;;-0.30;67.60;;;;;;5015924;28;20113;-76
2022/03/03 06:35:59;;;;;;;35.25;18.17;;;-0.30;67.40;;;;;;5015735;28;20105;-75
2022/03/03 06:38:25;;;;;;;32.13;16.92;;;-0.30;67.40;;;;;;5015434;28;20053;-76
2022/03/03 06:40:53;;;;;;;39.63;17.52;;;-0.40;67.10;;;;;;4997791;28;20041;-76
2022/03/03 06:43:18;;;;;;;35.30;16.70;;;-0.30;66.90;;;;;;5015380;28;20077;-76
2022/03/03 06:45:44;;;;;;;46.17;19.13;;;-0.10;66.70;;;;;;5015468;28;20172;-76
2022/03/03 06:48:10;;;;;;;39.50;19.73;;;0.00;66.20;;;;;;5015631;28;20022;-74
2022/03/03 06:50:38;;;;;;;38.58;18.30;;;0.10;66.00;;;;;;5015415;28;20095;-75
2022/03/03 06:53:07;;;;;;;43.08;17.67;;;0.10;65.70;;;;;;5015481;28;20086;-77
2022/03/03 06:55:33;;;;;;;37.38;17.83;;;0.10;65.50;;;;;;5015442;28;20088;-76
2022/03/03 06:58:00;;;;;;;28.45;15.43;;;0.20;65.20;;;;;;5015139;28;20489;-75
2022/03/03 07:00:28;;;;;;;39.72;16.67;;;0.20;64.30;;;;;;5015408;28;20037;-75
2022/03/03 07:02:54;;;;;;;33.85;16.60;;;0.20;64.00;;;;;;5014986;28;20105;-75
2022/03/03 07:05:21;;;;;;;35.80;17.25;;;0.20;64.10;;;;;;5007523;28;20121;-76
2022/03/03 07:07:48;;;;;;;33.60;17.05;;;0.30;63.60;;;;;;5005567;28;20022;-77
2022/03/03 07:10:23;;;;;;;36.97;18.45;;;0.40;63.40;;;;;;4977858;28;20026;-75
2022/03/03 07:12:53;;;;;;;35.38;17.13;;;0.50;63.30;;;;;;4995326;28;20030;-75
2022/03/03 07:15:19;;;;;;;36.50;18.27;;;0.60;63.10;;;;;;4994962;28;20027;-76
2022/03/03 07:17:49;;;;;;;35.28;16.10;;;0.60;62.70;;;;;;4995158;28;20447;-76
2022/03/03 07:20:52;;;;;;;36.72;18.38;;;0.70;62.30;;;;;;4995075;28;20113;-76
2022/03/03 07:23:32;;;;;;;38.90;18.05;;;0.90;62.00;;;;;;4995023;28;20052;-76
2022/03/03 07:26:00;;;;;;;34.03;16.77;;;1.00;61.70;;;;;;4994951;28;20030;-76
2022/03/03 07:28:28;;;;;;;30.58;16.77;;;1.10;61.20;;;;;;4994991;28;20022;-76
2022/03/03 07:30:55;;;;;;;33.55;17.20;;;1.30;60.60;;;;;;4995071;28;20034;-76
2022/03/03 07:33:43;;;;;;;34.97;17.00;;;1.40;59.80;;;;;;4995019;28;20027;-76
2022/03/03 07:36:11;;;;;;;35.60;17.48;;;1.50;59.40;;;;;;4994867;28;20538;-76
2022/03/03 07:38:38;;;;;;;35.40;17.42;;;1.60;58.80;;;;;;4994686;28;20106;-75
2022/03/03 07:41:07;;;;;;;33.95;17.45;;;1.70;58.60;;;;;;4977058;28;20340;-75
2022/03/03 07:43:32;;;;;;;38.08;19.15;;;1.80;58.60;;;;;;4994653;28;20046;-73
2022/03/03 07:45:59;;;;;;;37.38;19.50;;;1.80;61.30;;;;;;4994738;28;20034;-74
2022/03/03 07:48:25;;;;;;;46.55;20.92;;;1.70;62.60;;;;;;4994835;28;20034;-74
2022/03/03 07:50:51;;;;;;;42.50;18.85;;;1.70;63.40;;;;;;4994603;28;20461;-73
2022/03/03 07:53:17;;;;;;;35.45;17.25;;;1.80;63.50;;;;;;4994490;28;20097;-74
2022/03/03 07:55:50;;;;;;;29.75;12.95;;;1.90;63.10;;;;;;4994394;28;20050;-72
2022/03/03 07:58:19;;;;;;;26.83;15.20;;;2.30;73.80;;;;;;4994503;28;20026;-73
2022/03/03 08:00:51;;;;;;;31.75;15.60;;;3.10;86.30;;;;;;4994198;28;20026;-73
2022/03/03 08:03:21;;;;;;;27.83;15.70;;;3.80;75.80;;;;;;4994506;28;20093;-73
2022/03/03 08:05:50;;;;;;;32.70;16.77;;;4.40;68.00;;;;;;4994119;28;20395;-72
2022/03/03 08:08:20;;;;;;;30.40;16.38;;;5.00;63.80;;;;;;4976805;28;20034;-73
2022/03/03 08:10:46;;;;;;;32.88;16.77;;;5.30;55.70;;;;;;4993896;28;20026;-73
2022/03/03 08:13:14;;;;;;;28.10;15.88;;;5.50;51.90;;;;;;4993988;28;20057;-74
2022/03/03 08:15:41;;;;;;;33.45;16.95;;;5.50;48.40;;;;;;4994185;28;20022;-74
2022/03/03 08:18:07;;;;;;;34.22;17.40;;;5.40;47.90;;;;;;4994206;28;20033;-73
2022/03/03 08:20:34;;;;;;;29.77;16.63;;;5.50;48.40;;;;;;4993919;28;20026;-73
2022/03/03 08:23:02;;;;;;;33.40;15.82;;;5.80;49.70;;;;;;4993767;28;20468;-73
2022/03/03 08:25:28;;;;;;;29.02;16.02;;;6.40;48.80;;;;;;4993475;28;20501;-73
2022/03/03 08:27:54;;;;;;;29.88;16.95;;;6.90;47.40;;;;;;4993682;28;20034;-74
2022/03/03 08:30:21;;;;;;;31.55;16.25;;;7.50;45.00;;;;;;4994108;28;20049;-74
2022/03/03 08:33:20;;;;;;;26.77;16.17;;;7.70;43.60;;;;;;4993984;28;20026;-75
2022/03/03 08:35:54;;;;;;;26.80;15.55;;;7.90;43.10;;;;;;4993113;28;20073;-74
2022/03/03 08:38:34;;;;;;;32.03;16.98;;;7.90;43.60;;;;;;4976385;28;20482;-73
2022/03/03 08:41:02;;;;;;;29.67;15.70;;;7.90;42.30;;;;;;4993791;28;20026;-73
2022/03/03 08:43:30;;;;;;;26.13;15.93;;;8.20;43.10;;;;;;4993619;28;20047;-73
2022/03/03 08:46:02;;;;;;;30.95;16.23;;;8.50;42.60;;;;;;4993438;28;20491;-73
2022/03/03 08:48:30;;;;;;;30.67;17.48;;;8.80;41.30;;;;;;4993561;28;20037;-74
2022/03/03 08:50:57;;;;;;;30.40;15.88;;;8.80;40.20;;;;;;4976189;28;20475;-75
2022/03/03 08:53:23;;;;;;;36.33;18.23;;;8.70;39.70;;;;;;4976331;28;20038;-74
2022/03/03 08:55:48;;;;;;;35.25;18.48;;;8.60;38.40;;;;;;4975815;28;20080;-76
2022/03/03 08:58:14;;;;;;;34.65;18.20;;;8.20;38.60;;;;;;4976337;28;20028;-75
2022/03/03 09:00:41;;;;;;;28.08;17.13;;;7.90;39.80;;;;;;4993550;28;20023;-75
2022/03/03 09:03:06;;;;;;;31.30;17.13;;;7.80;41.00;;;;;;4976284;28;20022;-75
2022/03/03 09:05:32;;;;;;;30.15;17.75;;;7.70;40.80;;;;;;4993416;28;20130;-74
2022/03/03 09:07:58;;;;;;;33.55;17.73;;;7.70;40.90;;;;;;4993172;28;20375;-75
2022/03/03 09:10:24;;;;;;;35.42;16.00;;;7.60;41.20;;;;;;4993383;28;20022;-75
2022/03/03 09:12:50;;;;;;;31.33;17.40;;;7.70;41.70;;;;;;4993319;28;20030;-75
2022/03/03 09:15:16;;;;;;;29.98;17.35;;;7.80;42.00;;;;;;4993283;28;20029;-74
2022/03/03 09:17:43;;;;;;;31.67;17.80;;;7.80;42.40;;;;;;4993448;28;20208;-74
2022/03/03 09:20:13;;;;;;;31.23;15.95;;;8.00;42.50;;;;;;4975653;28;20022;-74
2022/03/03 09:22:39;;;;;;;34.45;17.15;;;8.00;42.70;;;;;;4993123;28;20413;-74
2022/03/03 09:25:05;;;;;;;31.95;18.17;;;8.30;43.30;;;;;;4993040;28;20097;-74
2022/03/03 09:27:31;;;;;;;31.80;16.75;;;8.30;42.90;;;;;;4993204;28;20100;-75
2022/03/03 09:29:56;;;;;;;27.88;17.30;;;8.30;44.50;;;;;;4993226;28;20054;-75
2022/03/03 09:32:22;;;;;;;34.10;17.75;;;8.50;43.20;;;;;;4993106;28;20038;-74
2022/03/03 09:34:47;;;;;;;32.20;18.05;;;8.70;42.80;;;;;;4993345;28;20027;-75
2022/03/03 09:37:13;;;;;;;36.20;19.23;;;9.00;42.50;;;;;;4976683;28;20045;-75
2022/03/03 09:39:39;;;;;;;32.60;17.63;;;9.20;42.70;;;;;;4980179;28;20027;-75
2022/03/03 09:42:05;;;;;;;34.85;19.50;;;9.40;41.70;;;;;;4979714;28;20466;-76
2022/03/03 09:44:31;;;;;;;39.22;19.60;;;9.40;40.90;;;;;;4979543;28;20046;-75
2022/03/03 09:46:56;;;;;;;40.60;18.48;;;9.30;40.90;;;;;;4979009;28;20463;-74
2022/03/03 09:49:22;;;;;;;35.55;18.90;;;9.60;40.60;;;;;;4979073;28;20080;-74
2022/03/03 09:51:50;;;;;;;33.78;18.40;;;9.90;40.40;;;;;;4979188;28;20029;-74
2022/03/03 09:54:15;;;;;;;36.25;18.02;;;10.00;39.30;;;;;;4980333;28;20022;-74
2022/03/03 09:56:41;;;;;;;37.65;18.85;;;10.20;38.10;;;;;;4979710;28;20030;-73
2022/03/03 09:59:07;;;;;;;30.23;17.58;;;10.30;37.90;;;;;;4979757;28;20090;-75
2022/03/03 10:01:34;;;;;;;31.35;17.17;;;10.10;38.10;;;;;;4996959;28;20169;-74
2022/03/03 10:04:20;;;;;;;35.03;19.35;;;10.30;37.90;;;;;;4979927;28;20493;-75
2022/03/03 10:06:46;;;;;;;31.60;17.75;;;10.50;37.70;;;;;;4979530;28;20038;-74
2022/03/03 10:09:13;;;;;;;38.88;19.92;;;10.70;37.60;;;;;;4979382;28;20086;-74
2022/03/03 10:12:02;;;;;;;36.28;19.70;;;11.00;37.20;;;;;;4979908;28;20463;-74
2022/03/03 10:14:35;;;;;;;34.95;19.13;;;11.30;36.30;;;;;;4979321;28;20019;-75
2022/03/03 10:17:02;;;;;;;32.95;17.85;;;11.50;35.80;;;;;;4963098;28;20026;-75
2022/03/03 10:19:28;;;;;;;34.42;19.52;;;11.70;35.40;;;;;;4979159;28;20030;-75
2022/03/03 10:21:53;;;;;;;30.15;17.95;;;11.70;35.00;;;;;;4996693;28;20132;-75
2022/03/03 10:24:28;;;;;;;32.08;18.45;;;11.80;35.20;;;;;;4980148;28;20121;-75
2022/03/03 10:27:06;;;;;;;33.83;18.20;;;11.90;34.40;;;;;;4978830;28;20049;-75
2022/03/03 10:29:33;;;;;;;28.52;17.00;;;11.90;33.80;;;;;;4979128;28;20040;-75
2022/03/03 10:32:00;;;;;;;33.17;18.42;;;12.20;34.20;;;;;;4996444;28;20023;-74
2022/03/03 10:34:31;;;;;;;36.50;18.15;;;12.40;33.40;;;;;;4978981;28;20026;-75
2022/03/03 10:37:02;;;;;;;30.60;17.30;;;12.10;33.30;;;;;;4978670;28;20430;-76
2022/03/03 10:39:46;;;;;;;37.28;21.52;;;12.00;33.60;;;;;;4983416;28;20474;-74
2022/03/03 10:42:17;;;;;;;32.75;17.80;;;12.30;34.10;;;;;;4979070;28;20030;-73
2022/03/03 10:44:43;;;;;;;33.10;17.63;;;12.50;32.90;;;;;;4994455;28;20061;-76
2022/03/03 10:47:11;;;;;;;28.85;15.77;;;12.40;32.40;;;;;;4995711;28;20042;-74
2022/03/03 10:49:40;;;;;;;29.90;17.35;;;12.60;32.20;;;;;;4993575;28;20027;-74
2022/03/03 10:52:27;;;;;;;28.38;17.42;;;12.90;32.70;;;;;;4993952;28;20117;-76
2022/03/03 10:55:01;;;;;;;30.60;18.38;;;13.40;32.10;;;;;;4994056;28;20026;-74
2022/03/03 10:57:40;;;;;;;34.80;18.42;;;13.60;31.30;;;;;;4994151;28;20023;-74
2022/03/03 11:00:19;;;;;;;30.77;18.38;;;13.80;31.10;;;;;;4994147;28;20027;-74
2022/03/03 11:02:47;;;;;;;30.48;17.20;;;13.50;31.20;;;;;;4993984;28;20023;-75
2022/03/03 11:05:14;;;;;;;30.23;17.35;;;13.60;30.80;;;;;;4993915;28;20030;-75
2022/03/03 11:07:45;;;;;;;32.38;17.05;;;13.60;31.30;;;;;;4994199;28;20030;-74
2022/03/03 11:10:14;;;;;;;33.63;18.13;;;13.90;31.90;;;;;;5001902;28;20374;-76
2022/03/03 11:12:42;;;;;;;32.08;18.40;;;14.30;31.30;;;;;;4994512;28;20129;-73
2022/03/03 11:15:08;;;;;;;28.60;17.85;;;14.60;30.00;;;;;;4994634;28;20066;-74
2022/03/03 11:17:36;;;;;;;33.78;17.73;;;14.70;30.10;;;;;;4981703;28;20034;-74
2022/03/03 11:20:03;;;;;;;25.88;16.30;;;14.90;28.70;;;;;;5006696;28;20454;-75
2022/03/03 11:22:32;;;;;;;32.63;18.00;;;15.20;28.20;;;;;;5007949;28;20038;-75
2022/03/03 11:25:05;;;;;;;25.70;16.33;;;15.50;28.00;;;;;;5006808;28;20084;-74
2022/03/03 11:27:36;;;;;;;29.85;16.80;;;15.80;27.40;;;;;;5003896;28;20031;-74
2022/03/03 11:30:12;;;;;;;26.92;16.73;;;16.10;26.70;;;;;;5002314;28;20121;-74
2022/03/03 11:32:38;;;;;;;28.40;16.55;;;16.30;27.10;;;;;;5006513;28;20022;-73
2022/03/03 11:35:09;;;;;;;28.75;17.42;;;16.40;25.40;;;;;;4995034;28;20034;-73
2022/03/03 11:37:44;;;;;;;29.40;17.08;;;16.40;24.40;;;;;;4995157;28;20027;-73
2022/03/03 11:40:12;;;;;;;26.67;16.53;;;16.50;24.10;;;;;;4996048;28;20027;-73
2022/03/03 11:42:48;;;;;;;26.38;17.52;;;16.60;23.90;;;;;;4994980;28;20023;-74
2022/03/03 11:45:15;;;;;;;34.03;18.20;;;16.70;23.70;;;;;;4993472;28;20170;-73
2022/03/03 11:47:45;;;;;;;26.90;17.63;;;16.50;23.20;;;;;;4994596;28;20060;-72
2022/03/03 11:50:16;;;;;;;28.02;17.48;;;16.10;23.40;;;;;;4993326;28;20022;-73
2022/03/03 11:52:44;;;;;;;29.30;17.90;;;15.80;24.00;;;;;;4993207;28;20034;-72
2022/03/03 11:55:47;;;;;;;29.23;17.30;;;15.70;24.90;;;;;;4993033;28;20418;-74
2022/03/03 11:58:26;;;;;;;25.75;15.80;;;15.50;25.20;;;;;;4992866;28;20117;-74
2022/03/03 12:00:58;;;;;;;26.58;15.63;;;15.70;24.60;;;;;;4992992;28;20026;-73
2022/03/03 12:03:25;;;;;;;27.17;17.20;;;16.10;24.20;;;;;;4993025;28;20050;-74
2022/03/03 12:06:14;;;;;;;30.13;17.27;;;16.50;23.50;;;;;;4992831;28;20034;-74
2022/03/03 12:08:41;;;;;;;25.48;16.20;;;16.40;22.00;;;;;;4992931;28;20030;-74
2022/03/03 12:11:17;;;;;;;27.02;15.85;;;16.00;21.90;;;;;;4992841;28;20026;-74
2022/03/03 12:13:49;;;;;;;26.38;15.00;;;15.80;22.10;;;;;;4992968;28;20026;-73
2022/03/03 12:16:25;;;;;;;23.58;13.90;;;15.70;22.50;;;;;;4993101;28;20050;-72
2022/03/03 12:18:54;;;;;;;;;;;15.30;22.20;;;;;;4994495;28;20053;-73
2022/03/03 12:21:32;;;;;;;20.17;12.43;;;15.00;21.60;;;;;;4976956;28;19905;-74
2022/03/03 12:24:13;;;;;;;21.55;13.73;;;15.20;21.70;;;;;;4993181;28;20026;-73
2022/03/03 12:27:00;;;;;;;23.30;13.95;;;15.30;21.90;;;;;;4992906;28;20042;-72
2022/03/03 12:29:48;;;;;;;21.50;13.10;;;15.70;21.30;;;;;;4993219;28;20026;-74
2022/03/03 12:32:34;;;;;;;21.23;13.20;;;15.90;20.70;;;;;;4992914;28;20109;-73
2022/03/03 12:35:24;;;;;;;23.05;14.05;;;15.90;20.50;;;;;;4993177;28;20121;-73
2022/03/03 12:37:51;;;;;;;22.42;14.07;;;15.70;21.10;;;;;;4992475;28;20022;-76